sensor_id;sensor_type;location;lat;lon;timestamp;P1;durP1;ratioP1;P2;durP2;ratioP2
66437;SDS011;54537;47.972;11.662;2023-02-01T00:01:42;4.75;;;2.08;;
66437;SDS011;54537;47.972;11.662;2023-02-01T00:04:09;7.05;;;2.55;;
66437;SDS011;54537;47.972;11.662;2023-02-01T00:06:36;6.30;;;2.10;;
66437;SDS011;54537;47.972;11.662;2023-02-01T00:09:03;4.00;;;1.90;;
66437;SDS011;54537;47.972;11.662;2023-02-01T00:11:29;5.20;;;2.30;;
66437;SDS011;54537;47.972;11.662;2023-02-01T00:13:56;6.65;;;2.33;;
66437;SDS011;54537;47.972;11.662;2023-02-01T00:16:23;3.25;;;1.75;;
66437;SDS011;54537;47.972;11.662;2023-02-01T00:18:55;5.25;;;2.00;;
66437;SDS011;54537;47.972;11.662;2023-02-01T00:21:23;4.97;;;2.17;;
66437;SDS011;54537;47.972;11.662;2023-02-01T00:23:50;6.95;;;2.20;;
66437;SDS011;54537;47.972;11.662;2023-02-01T00:26:17;3.78;;;1.58;;
66437;SDS011;54537;47.972;11.662;2023-02-01T00:28:44;5.03;;;1.50;;
66437;SDS011;54537;47.972;11.662;2023-02-01T00:31:11;3.45;;;1.80;;
66437;SDS011;54537;47.972;11.662;2023-02-01T00:33:37;8.30;;;2.22;;
66437;SDS011;54537;47.972;11.662;2023-02-01T00:36:06;3.47;;;1.65;;
66437;SDS011;54537;47.972;11.662;2023-02-01T00:38:34;5.78;;;2.10;;
66437;SDS011;54537;47.972;11.662;2023-02-01T00:41:03;4.70;;;2.20;;
66437;SDS011;54537;47.972;11.662;2023-02-01T00:43:30;2.33;;;1.33;;
66437;SDS011;54537;47.972;11.662;2023-02-01T00:45:57;5.07;;;1.55;;
66437;SDS011;54537;47.972;11.662;2023-02-01T00:48:23;18.00;;;1.80;;
66437;SDS011;54537;47.972;11.662;2023-02-01T00:50:50;4.47;;;1.90;;
66437;SDS011;54537;47.972;11.662;2023-02-01T00:53:18;5.78;;;1.58;;
66437;SDS011;54537;47.972;11.662;2023-02-01T00:55:44;3.92;;;1.38;;
66437;SDS011;54537;47.972;11.662;2023-02-01T00:58:11;5.53;;;2.20;;
66437;SDS011;54537;47.972;11.662;2023-02-01T01:00:38;3.40;;;1.55;;
66437;SDS011;54537;47.972;11.662;2023-02-01T01:03:05;3.58;;;1.50;;
66437;SDS011;54537;47.972;11.662;2023-02-01T01:05:42;3.00;;;1.42;;
66437;SDS011;54537;47.972;11.662;2023-02-01T01:08:09;4.03;;;1.70;;
66437;SDS011;54537;47.972;11.662;2023-02-01T01:10:37;4.25;;;1.80;;
66437;SDS011;54537;47.972;11.662;2023-02-01T01:13:04;5.55;;;1.80;;
66437;SDS011;54537;47.972;11.662;2023-02-01T01:15:31;5.25;;;1.50;;
66437;SDS011;54537;47.972;11.662;2023-02-01T01:17:59;3.42;;;1.55;;
66437;SDS011;54537;47.972;11.662;2023-02-01T01:20:25;3.55;;;1.83;;
66437;SDS011;54537;47.972;11.662;2023-02-01T01:22:51;6.25;;;2.00;;
66437;SDS011;54537;47.972;11.662;2023-02-01T01:25:18;3.47;;;1.48;;
66437;SDS011;54537;47.972;11.662;2023-02-01T01:27:46;6.63;;;2.00;;
66437;SDS011;54537;47.972;11.662;2023-02-01T01:30:13;2.85;;;1.35;;
66437;SDS011;54537;47.972;11.662;2023-02-01T01:32:39;3.35;;;1.52;;
66437;SDS011;54537;47.972;11.662;2023-02-01T01:35:06;4.68;;;2.25;;
66437;SDS011;54537;47.972;11.662;2023-02-01T01:37:33;4.68;;;1.95;;
66437;SDS011;54537;47.972;11.662;2023-02-01T01:40:00;6.72;;;2.17;;
66437;SDS011;54537;47.972;11.662;2023-02-01T01:42:27;9.27;;;2.28;;
66437;SDS011;54537;47.972;11.662;2023-02-01T01:44:59;5.75;;;2.47;;
66437;SDS011;54537;47.972;11.662;2023-02-01T01:47:26;5.22;;;2.15;;
66437;SDS011;54537;47.972;11.662;2023-02-01T01:49:54;6.38;;;2.38;;
66437;SDS011;54537;47.972;11.662;2023-02-01T01:52:21;4.88;;;2.08;;
66437;SDS011;54537;47.972;11.662;2023-02-01T01:54:48;5.15;;;1.67;;
66437;SDS011;54537;47.972;11.662;2023-02-01T01:57:17;5.82;;;2.10;;
66437;SDS011;54537;47.972;11.662;2023-02-01T01:59:48;6.03;;;2.70;;
66437;SDS011;54537;47.972;11.662;2023-02-01T02:02:17;6.43;;;2.53;;
66437;SDS011;54537;47.972;11.662;2023-02-01T02:04:44;5.70;;;2.05;;
66437;SDS011;54537;47.972;11.662;2023-02-01T02:07:13;5.97;;;2.55;;
66437;SDS011;54537;47.972;11.662;2023-02-01T02:09:40;4.70;;;2.20;;
66437;SDS011;54537;47.972;11.662;2023-02-01T02:12:08;5.70;;;1.88;;
66437;SDS011;54537;47.972;11.662;2023-02-01T02:14:34;7.00;;;2.08;;
66437;SDS011;54537;47.972;11.662;2023-02-01T02:17:15;4.93;;;1.77;;
66437;SDS011;54537;47.972;11.662;2023-02-01T02:23:09;5.10;;;1.85;;
66437;SDS011;54537;47.972;11.662;2023-02-01T02:29:09;4.50;;;1.80;;
66437;SDS011;54537;47.972;11.662;2023-02-01T02:31:48;6.78;;;2.10;;
66437;SDS011;54537;47.972;11.662;2023-02-01T02:34:34;5.25;;;2.28;;
66437;SDS011;54537;47.972;11.662;2023-02-01T02:37:04;4.50;;;1.77;;
66437;SDS011;54537;47.972;11.662;2023-02-01T02:39:40;6.60;;;2.20;;
66437;SDS011;54537;47.972;11.662;2023-02-01T02:42:11;5.32;;;2.03;;
66437;SDS011;54537;47.972;11.662;2023-02-01T02:44:58;6.05;;;2.22;;
66437;SDS011;54537;47.972;11.662;2023-02-01T02:47:47;4.80;;;2.22;;
66437;SDS011;54537;47.972;11.662;2023-02-01T02:53:05;7.22;;;2.17;;
66437;SDS011;54537;47.972;11.662;2023-02-01T02:55:54;6.22;;;2.20;;
66437;SDS011;54537;47.972;11.662;2023-02-01T02:58:39;7.03;;;2.80;;
66437;SDS011;54537;47.972;11.662;2023-02-01T03:01:24;5.68;;;2.33;;
66437;SDS011;54537;47.972;11.662;2023-02-01T03:04:08;3.97;;;1.75;;
66437;SDS011;54537;47.972;11.662;2023-02-01T03:06:40;5.22;;;2.08;;
66437;SDS011;54537;47.972;11.662;2023-02-01T03:09:08;7.63;;;2.70;;
66437;SDS011;54537;47.972;11.662;2023-02-01T03:11:38;6.65;;;2.50;;
66437;SDS011;54537;47.972;11.662;2023-02-01T03:14:22;4.22;;;2.20;;
66437;SDS011;54537;47.972;11.662;2023-02-01T03:16:53;6.03;;;2.50;;
66437;SDS011;54537;47.972;11.662;2023-02-01T03:19:24;5.40;;;2.50;;
66437;SDS011;54537;47.972;11.662;2023-02-01T03:21:55;6.05;;;2.15;;
66437;SDS011;54537;47.972;11.662;2023-02-01T03:24:25;7.00;;;2.40;;
66437;SDS011;54537;47.972;11.662;2023-02-01T03:27:00;5.78;;;2.67;;
66437;SDS011;54537;47.972;11.662;2023-02-01T03:29:29;5.25;;;2.58;;
66437;SDS011;54537;47.972;11.662;2023-02-01T03:32:03;8.80;;;2.40;;
66437;SDS011;54537;47.972;11.662;2023-02-01T03:34:30;4.47;;;1.75;;
66437;SDS011;54537;47.972;11.662;2023-02-01T03:36:58;4.55;;;2.13;;
66437;SDS011;54537;47.972;11.662;2023-02-01T03:39:27;2.90;;;1.25;;
66437;SDS011;54537;47.972;11.662;2023-02-01T03:41:58;6.53;;;2.47;;
66437;SDS011;54537;47.972;11.662;2023-02-01T03:44:26;6.47;;;2.50;;
66437;SDS011;54537;47.972;11.662;2023-02-01T03:46:56;6.05;;;2.17;;
66437;SDS011;54537;47.972;11.662;2023-02-01T03:49:25;7.32;;;2.67;;
66437;SDS011;54537;47.972;11.662;2023-02-01T03:51:53;5.78;;;2.38;;
66437;SDS011;54537;47.972;11.662;2023-02-01T03:54:22;4.50;;;1.92;;
66437;SDS011;54537;47.972;11.662;2023-02-01T03:56:49;6.47;;;2.90;;
66437;SDS011;54537;47.972;11.662;2023-02-01T03:59:16;4.93;;;2.25;;
66437;SDS011;54537;47.972;11.662;2023-02-01T04:01:43;9.18;;;2.60;;
66437;SDS011;54537;47.972;11.662;2023-02-01T04:04:09;6.82;;;2.75;;
66437;SDS011;54537;47.972;11.662;2023-02-01T04:06:44;6.53;;;2.50;;
66437;SDS011;54537;47.972;11.662;2023-02-01T04:09:11;5.85;;;2.38;;
66437;SDS011;54537;47.972;11.662;2023-02-01T04:11:39;8.02;;;2.97;;
66437;SDS011;54537;47.972;11.662;2023-02-01T04:14:05;5.70;;;2.42;;
66437;SDS011;54537;47.972;11.662;2023-02-01T04:16:32;6.53;;;2.58;;
66437;SDS011;54537;47.972;11.662;2023-02-01T04:18:59;5.93;;;2.08;;
66437;SDS011;54537;47.972;11.662;2023-02-01T04:21:26;7.65;;;2.25;;
66437;SDS011;54537;47.972;11.662;2023-02-01T04:23:53;5.60;;;2.65;;
66437;SDS011;54537;47.972;11.662;2023-02-01T04:26:20;7.93;;;3.00;;
66437;SDS011;54537;47.972;11.662;2023-02-01T04:28:48;6.93;;;3.25;;
66437;SDS011;54537;47.972;11.662;2023-02-01T04:31:14;7.57;;;2.65;;
66437;SDS011;54537;47.972;11.662;2023-02-01T04:33:41;8.10;;;2.60;;
66437;SDS011;54537;47.972;11.662;2023-02-01T04:36:08;6.38;;;1.75;;
66437;SDS011;54537;47.972;11.662;2023-02-01T04:38:34;5.00;;;2.03;;
66437;SDS011;54537;47.972;11.662;2023-02-01T04:41:01;5.15;;;2.05;;
66437;SDS011;54537;47.972;11.662;2023-02-01T04:43:28;6.85;;;2.75;;
66437;SDS011;54537;47.972;11.662;2023-02-01T04:45:56;6.70;;;2.97;;
66437;SDS011;54537;47.972;11.662;2023-02-01T04:48:22;7.32;;;2.28;;
66437;SDS011;54537;47.972;11.662;2023-02-01T04:50:48;6.82;;;2.33;;
66437;SDS011;54537;47.972;11.662;2023-02-01T04:53:15;4.35;;;2.40;;
66437;SDS011;54537;47.972;11.662;2023-02-01T04:55:42;10.55;;;2.60;;
66437;SDS011;54537;47.972;11.662;2023-02-01T04:58:09;8.73;;;3.08;;
66437;SDS011;54537;47.972;11.662;2023-02-01T05:00:36;5.65;;;2.65;;
66437;SDS011;54537;47.972;11.662;2023-02-01T05:03:04;7.45;;;3.15;;
66437;SDS011;54537;47.972;11.662;2023-02-01T05:05:31;6.68;;;2.95;;
66437;SDS011;54537;47.972;11.662;2023-02-01T05:07:57;6.72;;;2.35;;
66437;SDS011;54537;47.972;11.662;2023-02-01T05:10:24;6.40;;;2.58;;
66437;SDS011;54537;47.972;11.662;2023-02-01T05:12:50;4.28;;;2.30;;
66437;SDS011;54537;47.972;11.662;2023-02-01T05:15:34;6.32;;;2.70;;
66437;SDS011;54537;47.972;11.662;2023-02-01T05:18:01;5.80;;;2.67;;
66437;SDS011;54537;47.972;11.662;2023-02-01T05:20:29;6.28;;;2.67;;
66437;SDS011;54537;47.972;11.662;2023-02-01T05:22:55;7.10;;;3.08;;
66437;SDS011;54537;47.972;11.662;2023-02-01T05:25:21;7.20;;;3.25;;
66437;SDS011;54537;47.972;11.662;2023-02-01T05:27:48;7.10;;;2.83;;
66437;SDS011;54537;47.972;11.662;2023-02-01T05:30:15;6.75;;;2.90;;
66437;SDS011;54537;47.972;11.662;2023-02-01T05:32:41;6.10;;;2.35;;
66437;SDS011;54537;47.972;11.662;2023-02-01T05:35:08;6.43;;;2.67;;
66437;SDS011;54537;47.972;11.662;2023-02-01T05:37:36;7.32;;;2.83;;
66437;SDS011;54537;47.972;11.662;2023-02-01T05:40:03;6.75;;;2.83;;
66437;SDS011;54537;47.972;11.662;2023-02-01T05:42:29;7.07;;;2.38;;
66437;SDS011;54537;47.972;11.662;2023-02-01T05:44:56;6.43;;;2.70;;
66437;SDS011;54537;47.972;11.662;2023-02-01T05:47:22;4.35;;;2.03;;
66437;SDS011;54537;47.972;11.662;2023-02-01T05:49:49;8.00;;;2.75;;
66437;SDS011;54537;47.972;11.662;2023-02-01T05:52:15;7.40;;;3.17;;
66437;SDS011;54537;47.972;11.662;2023-02-01T05:54:45;7.95;;;3.10;;
66437;SDS011;54537;47.972;11.662;2023-02-01T05:57:12;9.35;;;2.90;;
66437;SDS011;54537;47.972;11.662;2023-02-01T05:59:39;10.32;;;3.60;;
66437;SDS011;54537;47.972;11.662;2023-02-01T06:02:09;7.38;;;2.97;;
66437;SDS011;54537;47.972;11.662;2023-02-01T06:04:36;8.38;;;3.25;;
66437;SDS011;54537;47.972;11.662;2023-02-01T06:07:03;7.45;;;2.60;;
66437;SDS011;54537;47.972;11.662;2023-02-01T06:09:29;7.40;;;2.90;;
66437;SDS011;54537;47.972;11.662;2023-02-01T06:11:57;7.07;;;2.47;;
66437;SDS011;54537;47.972;11.662;2023-02-01T06:14:24;7.50;;;3.10;;
66437;SDS011;54537;47.972;11.662;2023-02-01T06:16:51;7.82;;;2.55;;
66437;SDS011;54537;47.972;11.662;2023-02-01T06:19:17;8.10;;;3.38;;
66437;SDS011;54537;47.972;11.662;2023-02-01T06:21:44;7.40;;;2.92;;
66437;SDS011;54537;47.972;11.662;2023-02-01T06:24:10;6.18;;;2.60;;
66437;SDS011;54537;47.972;11.662;2023-02-01T06:26:37;7.05;;;2.72;;
66437;SDS011;54537;47.972;11.662;2023-02-01T06:29:05;7.10;;;2.95;;
66437;SDS011;54537;47.972;11.662;2023-02-01T06:31:32;6.63;;;3.10;;
66437;SDS011;54537;47.972;11.662;2023-02-01T06:33:58;9.60;;;3.20;;
66437;SDS011;54537;47.972;11.662;2023-02-01T06:36:25;6.80;;;2.65;;
66437;SDS011;54537;47.972;11.662;2023-02-01T06:38:51;9.45;;;3.15;;
66437;SDS011;54537;47.972;11.662;2023-02-01T06:41:18;7.75;;;2.45;;
66437;SDS011;54537;47.972;11.662;2023-02-01T06:43:45;8.30;;;2.78;;
66437;SDS011;54537;47.972;11.662;2023-02-01T06:46:13;7.25;;;2.55;;
66437;SDS011;54537;47.972;11.662;2023-02-01T06:48:40;7.47;;;2.55;;
66437;SDS011;54537;47.972;11.662;2023-02-01T06:51:14;6.00;;;2.58;;
66437;SDS011;54537;47.972;11.662;2023-02-01T06:53:44;6.65;;;3.10;;
66437;SDS011;54537;47.972;11.662;2023-02-01T06:56:10;6.82;;;2.50;;
66437;SDS011;54537;47.972;11.662;2023-02-01T06:58:37;9.15;;;3.03;;
66437;SDS011;54537;47.972;11.662;2023-02-01T07:01:04;5.78;;;2.53;;
66437;SDS011;54537;47.972;11.662;2023-02-01T07:03:32;7.30;;;2.78;;
66437;SDS011;54537;47.972;11.662;2023-02-01T07:05:58;7.40;;;2.78;;
66437;SDS011;54537;47.972;11.662;2023-02-01T07:08:26;6.13;;;2.80;;
66437;SDS011;54537;47.972;11.662;2023-02-01T07:10:53;7.55;;;2.50;;
66437;SDS011;54537;47.972;11.662;2023-02-01T07:13:19;8.02;;;2.88;;
66437;SDS011;54537;47.972;11.662;2023-02-01T07:15:46;6.90;;;2.67;;
66437;SDS011;54537;47.972;11.662;2023-02-01T07:18:12;5.47;;;2.47;;
66437;SDS011;54537;47.972;11.662;2023-02-01T07:20:41;7.68;;;2.90;;
66437;SDS011;54537;47.972;11.662;2023-02-01T07:23:07;5.50;;;2.20;;
66437;SDS011;54537;47.972;11.662;2023-02-01T07:25:34;8.75;;;2.97;;
66437;SDS011;54537;47.972;11.662;2023-02-01T07:28:01;7.90;;;3.10;;
66437;SDS011;54537;47.972;11.662;2023-02-01T07:30:28;8.55;;;2.45;;
66437;SDS011;54537;47.972;11.662;2023-02-01T07:32:54;7.55;;;3.25;;
66437;SDS011;54537;47.972;11.662;2023-02-01T07:35:24;5.18;;;2.28;;
66437;SDS011;54537;47.972;11.662;2023-02-01T07:37:52;6.13;;;2.33;;
66437;SDS011;54537;47.972;11.662;2023-02-01T07:40:18;7.90;;;2.63;;
66437;SDS011;54537;47.972;11.662;2023-02-01T07:42:49;5.90;;;2.40;;
66437;SDS011;54537;47.972;11.662;2023-02-01T07:45:16;5.32;;;2.42;;
66437;SDS011;54537;47.972;11.662;2023-02-01T07:47:42;7.20;;;2.97;;
66437;SDS011;54537;47.972;11.662;2023-02-01T07:50:09;5.28;;;2.42;;
66437;SDS011;54537;47.972;11.662;2023-02-01T07:52:36;6.38;;;2.40;;
66437;SDS011;54537;47.972;11.662;2023-02-01T07:55:04;5.05;;;2.30;;
66437;SDS011;54537;47.972;11.662;2023-02-01T07:57:32;4.32;;;2.05;;
66437;SDS011;54537;47.972;11.662;2023-02-01T07:59:58;5.25;;;2.00;;
66437;SDS011;54537;47.972;11.662;2023-02-01T08:02:42;7.82;;;2.75;;
66437;SDS011;54537;47.972;11.662;2023-02-01T08:05:08;5.63;;;2.20;;
66437;SDS011;54537;47.972;11.662;2023-02-01T08:07:35;7.28;;;2.40;;
66437;SDS011;54537;47.972;11.662;2023-02-01T08:10:01;6.80;;;2.40;;
66437;SDS011;54537;47.972;11.662;2023-02-01T08:12:31;4.20;;;1.75;;
66437;SDS011;54537;47.972;11.662;2023-02-01T08:14:58;4.28;;;1.92;;
66437;SDS011;54537;47.972;11.662;2023-02-01T08:17:25;4.50;;;2.28;;
66437;SDS011;54537;47.972;11.662;2023-02-01T08:19:53;5.80;;;2.58;;
66437;SDS011;54537;47.972;11.662;2023-02-01T08:22:19;9.00;;;2.70;;
66437;SDS011;54537;47.972;11.662;2023-02-01T08:24:47;7.50;;;2.38;;
66437;SDS011;54537;47.972;11.662;2023-02-01T08:27:13;5.50;;;2.13;;
66437;SDS011;54537;47.972;11.662;2023-02-01T08:29:42;6.00;;;2.33;;
66437;SDS011;54537;47.972;11.662;2023-02-01T08:32:08;5.63;;;2.00;;
66437;SDS011;54537;47.972;11.662;2023-02-01T08:34:34;4.85;;;1.80;;
66437;SDS011;54537;47.972;11.662;2023-02-01T08:37:01;5.88;;;2.28;;
66437;SDS011;54537;47.972;11.662;2023-02-01T08:39:27;5.18;;;1.95;;
66437;SDS011;54537;47.972;11.662;2023-02-01T08:41:54;4.53;;;2.00;;
66437;SDS011;54537;47.972;11.662;2023-02-01T08:44:38;6.78;;;2.47;;
66437;SDS011;54537;47.972;11.662;2023-02-01T08:47:06;4.57;;;2.05;;
66437;SDS011;54537;47.972;11.662;2023-02-01T08:49:32;5.72;;;2.15;;
66437;SDS011;54537;47.972;11.662;2023-02-01T08:51:59;7.20;;;2.22;;
66437;SDS011;54537;47.972;11.662;2023-02-01T08:54:25;6.20;;;2.08;;
66437;SDS011;54537;47.972;11.662;2023-02-01T08:56:52;6.40;;;2.38;;
66437;SDS011;54537;47.972;11.662;2023-02-01T08:59:19;5.47;;;1.95;;
66437;SDS011;54537;47.972;11.662;2023-02-01T09:01:46;4.70;;;2.20;;
66437;SDS011;54537;47.972;11.662;2023-02-01T09:04:14;3.88;;;1.63;;
66437;SDS011;54537;47.972;11.662;2023-02-01T09:06:40;5.53;;;2.50;;
66437;SDS011;54537;47.972;11.662;2023-02-01T09:09:07;6.65;;;2.70;;
66437;SDS011;54537;47.972;11.662;2023-02-01T09:11:33;7.53;;;2.25;;
66437;SDS011;54537;47.972;11.662;2023-02-01T09:14:00;5.85;;;2.00;;
66437;SDS011;54537;47.972;11.662;2023-02-01T09:16:26;5.10;;;1.85;;
66437;SDS011;54537;47.972;11.662;2023-02-01T09:18:53;5.15;;;2.33;;
66437;SDS011;54537;47.972;11.662;2023-02-01T09:21:20;5.70;;;2.60;;
66437;SDS011;54537;47.972;11.662;2023-02-01T09:23:47;5.45;;;2.15;;
66437;SDS011;54537;47.972;11.662;2023-02-01T09:26:14;4.28;;;1.77;;
66437;SDS011;54537;47.972;11.662;2023-02-01T09:28:40;6.20;;;2.35;;
66437;SDS011;54537;47.972;11.662;2023-02-01T09:31:08;5.63;;;2.33;;
66437;SDS011;54537;47.972;11.662;2023-02-01T09:33:35;3.78;;;1.90;;
66437;SDS011;54537;47.972;11.662;2023-02-01T09:36:02;5.05;;;2.20;;
66437;SDS011;54537;47.972;11.662;2023-02-01T09:38:31;4.03;;;1.92;;
66437;SDS011;54537;47.972;11.662;2023-02-01T09:40:58;6.07;;;2.30;;
66437;SDS011;54537;47.972;11.662;2023-02-01T09:43:29;5.00;;;2.15;;
66437;SDS011;54537;47.972;11.662;2023-02-01T09:46:06;4.53;;;1.95;;
66437;SDS011;54537;47.972;11.662;2023-02-01T09:48:42;4.40;;;2.05;;
66437;SDS011;54537;47.972;11.662;2023-02-01T09:51:11;4.88;;;2.00;;
66437;SDS011;54537;47.972;11.662;2023-02-01T09:53:43;4.20;;;1.92;;
66437;SDS011;54537;47.972;11.662;2023-02-01T09:56:11;4.97;;;2.17;;
66437;SDS011;54537;47.972;11.662;2023-02-01T09:58:41;3.40;;;1.50;;
66437;SDS011;54537;47.972;11.662;2023-02-01T10:01:10;6.68;;;1.92;;
66437;SDS011;54537;47.972;11.662;2023-02-01T10:03:45;4.35;;;2.10;;
66437;SDS011;54537;47.972;11.662;2023-02-01T10:12:13;4.97;;;1.90;;
66437;SDS011;54537;47.972;11.662;2023-02-01T10:14:59;4.95;;;2.00;;
66437;SDS011;54537;47.972;11.662;2023-02-01T10:17:35;7.13;;;1.90;;
66437;SDS011;54537;47.972;11.662;2023-02-01T10:20:12;4.50;;;1.55;;
66437;SDS011;54537;47.972;11.662;2023-02-01T10:22:45;6.22;;;2.35;;
66437;SDS011;54537;47.972;11.662;2023-02-01T10:25:16;4.85;;;1.88;;
66437;SDS011;54537;47.972;11.662;2023-02-01T10:27:48;6.28;;;1.88;;
66437;SDS011;54537;47.972;11.662;2023-02-01T10:30:19;4.07;;;1.75;;
66437;SDS011;54537;47.972;11.662;2023-02-01T10:32:47;4.68;;;2.13;;
66437;SDS011;54537;47.972;11.662;2023-02-01T10:35:16;3.08;;;1.67;;
66437;SDS011;54537;47.972;11.662;2023-02-01T10:37:44;3.97;;;1.77;;
66437;SDS011;54537;47.972;11.662;2023-02-01T10:40:17;3.97;;;1.73;;
66437;SDS011;54537;47.972;11.662;2023-02-01T10:42:46;7.05;;;2.13;;
66437;SDS011;54537;47.972;11.662;2023-02-01T10:45:14;4.28;;;1.92;;
66437;SDS011;54537;47.972;11.662;2023-02-01T10:47:43;5.78;;;2.08;;
66437;SDS011;54537;47.972;11.662;2023-02-01T10:50:13;8.13;;;1.73;;
66437;SDS011;54537;47.972;11.662;2023-02-01T10:52:44;6.65;;;2.40;;
66437;SDS011;54537;47.972;11.662;2023-02-01T10:55:28;5.68;;;1.98;;
66437;SDS011;54537;47.972;11.662;2023-02-01T10:57:57;5.30;;;2.15;;
66437;SDS011;54537;47.972;11.662;2023-02-01T11:00:24;4.60;;;1.98;;
66437;SDS011;54537;47.972;11.662;2023-02-01T11:02:52;3.92;;;1.95;;
66437;SDS011;54537;47.972;11.662;2023-02-01T11:05:19;2.63;;;1.27;;
66437;SDS011;54537;47.972;11.662;2023-02-01T11:07:48;4.55;;;1.92;;
66437;SDS011;54537;47.972;11.662;2023-02-01T11:13:05;4.22;;;1.98;;
66437;SDS011;54537;47.972;11.662;2023-02-01T11:15:42;4.95;;;1.98;;
66437;SDS011;54537;47.972;11.662;2023-02-01T11:18:14;4.13;;;1.80;;
66437;SDS011;54537;47.972;11.662;2023-02-01T11:20:42;5.18;;;2.00;;
66437;SDS011;54537;47.972;11.662;2023-02-01T11:23:14;4.18;;;1.60;;
66437;SDS011;54537;47.972;11.662;2023-02-01T11:25:48;4.93;;;2.13;;
66437;SDS011;54537;47.972;11.662;2023-02-01T11:28:16;6.28;;;1.85;;
66437;SDS011;54537;47.972;11.662;2023-02-01T11:30:44;3.47;;;1.67;;
66437;SDS011;54537;47.972;11.662;2023-02-01T11:33:12;4.82;;;1.60;;
66437;SDS011;54537;47.972;11.662;2023-02-01T11:35:41;10.60;;;1.50;;
66437;SDS011;54537;47.972;11.662;2023-02-01T11:38:13;3.75;;;1.73;;
66437;SDS011;54537;47.972;11.662;2023-02-01T11:40:46;5.07;;;1.65;;
66437;SDS011;54537;47.972;11.662;2023-02-01T11:43:16;8.20;;;2.10;;
66437;SDS011;54537;47.972;11.662;2023-02-01T11:45:53;3.05;;;1.50;;
66437;SDS011;54537;47.972;11.662;2023-02-01T11:48:20;5.35;;;1.75;;
66437;SDS011;54537;47.972;11.662;2023-02-01T11:50:48;7.43;;;2.17;;
66437;SDS011;54537;47.972;11.662;2023-02-01T11:53:20;5.68;;;2.28;;
66437;SDS011;54537;47.972;11.662;2023-02-01T11:56:01;2.97;;;1.60;;
66437;SDS011;54537;47.972;11.662;2023-02-01T11:58:36;5.20;;;2.03;;
66437;SDS011;54537;47.972;11.662;2023-02-01T12:01:22;5.13;;;1.77;;
66437;SDS011;54537;47.972;11.662;2023-02-01T12:06:47;7.45;;;2.22;;
66437;SDS011;54537;47.972;11.662;2023-02-01T12:09:20;4.50;;;1.98;;
66437;SDS011;54537;47.972;11.662;2023-02-01T12:11:55;5.43;;;2.20;;
66437;SDS011;54537;47.972;11.662;2023-02-01T12:14:35;6.72;;;1.65;;
66437;SDS011;54537;47.972;11.662;2023-02-01T12:17:11;4.63;;;2.00;;
66437;SDS011;54537;47.972;11.662;2023-02-01T12:19:51;5.90;;;2.60;;
66437;SDS011;54537;47.972;11.662;2023-02-01T12:22:30;5.18;;;2.10;;
66437;SDS011;54537;47.972;11.662;2023-02-01T12:25:11;7.35;;;2.47;;
66437;SDS011;54537;47.972;11.662;2023-02-01T12:27:46;4.35;;;1.95;;
66437;SDS011;54537;47.972;11.662;2023-02-01T12:30:39;11.55;;;2.10;;
66437;SDS011;54537;47.972;11.662;2023-02-01T12:33:17;7.57;;;2.35;;
66437;SDS011;54537;47.972;11.662;2023-02-01T12:35:50;7.22;;;2.53;;
66437;SDS011;54537;47.972;11.662;2023-02-01T12:38:27;4.45;;;1.92;;
66437;SDS011;54537;47.972;11.662;2023-02-01T12:41:10;5.93;;;2.08;;
66437;SDS011;54537;47.972;11.662;2023-02-01T12:43:44;7.47;;;2.30;;
66437;SDS011;54537;47.972;11.662;2023-02-01T12:46:14;5.05;;;2.10;;
66437;SDS011;54537;47.972;11.662;2023-02-01T12:48:46;4.65;;;2.10;;
66437;SDS011;54537;47.972;11.662;2023-02-01T12:51:20;6.28;;;2.33;;
66437;SDS011;54537;47.972;11.662;2023-02-01T12:53:50;6.50;;;2.20;;
66437;SDS011;54537;47.972;11.662;2023-02-01T12:56:20;4.68;;;2.08;;
66437;SDS011;54537;47.972;11.662;2023-02-01T12:58:49;5.60;;;1.83;;
66437;SDS011;54537;47.972;11.662;2023-02-01T13:01:20;7.03;;;2.17;;
66437;SDS011;54537;47.972;11.662;2023-02-01T13:03:53;8.85;;;2.85;;
66437;SDS011;54537;47.972;11.662;2023-02-01T13:06:23;6.28;;;2.00;;
66437;SDS011;54537;47.972;11.662;2023-02-01T13:08:53;6.40;;;1.98;;
66437;SDS011;54537;47.972;11.662;2023-02-01T13:11:24;4.53;;;1.85;;
66437;SDS011;54537;47.972;11.662;2023-02-01T13:13:54;4.82;;;2.03;;
66437;SDS011;54537;47.972;11.662;2023-02-01T13:16:27;7.13;;;1.90;;
66437;SDS011;54537;47.972;11.662;2023-02-01T13:18:59;7.20;;;2.40;;
66437;SDS011;54537;47.972;11.662;2023-02-01T13:21:31;4.38;;;1.77;;
66437;SDS011;54537;47.972;11.662;2023-02-01T13:24:00;5.85;;;1.95;;
66437;SDS011;54537;47.972;11.662;2023-02-01T13:26:26;7.22;;;2.30;;
66437;SDS011;54537;47.972;11.662;2023-02-01T13:28:53;4.88;;;2.08;;
66437;SDS011;54537;47.972;11.662;2023-02-01T13:34:34;3.90;;;1.85;;
66437;SDS011;54537;47.972;11.662;2023-02-01T13:37:26;5.55;;;2.10;;
66437;SDS011;54537;47.972;11.662;2023-02-01T13:39:59;3.70;;;1.80;;
66437;SDS011;54537;47.972;11.662;2023-02-01T13:42:41;4.80;;;2.08;;
66437;SDS011;54537;47.972;11.662;2023-02-01T13:45:13;4.30;;;1.92;;
66437;SDS011;54537;47.972;11.662;2023-02-01T13:47:43;4.70;;;1.98;;
66437;SDS011;54537;47.972;11.662;2023-02-01T13:50:12;8.18;;;2.88;;
66437;SDS011;54537;47.972;11.662;2023-02-01T13:52:45;9.25;;;1.85;;
66437;SDS011;54537;47.972;11.662;2023-02-01T13:55:26;3.65;;;1.42;;
66437;SDS011;54537;47.972;11.662;2023-02-01T13:58:01;4.63;;;1.60;;
66437;SDS011;54537;47.972;11.662;2023-02-01T14:00:33;3.38;;;1.50;;
66437;SDS011;54537;47.972;11.662;2023-02-01T14:03:09;3.75;;;1.58;;
66437;SDS011;54537;47.972;11.662;2023-02-01T14:08:36;5.50;;;2.05;;
66437;SDS011;54537;47.972;11.662;2023-02-01T14:11:07;3.75;;;1.58;;
66437;SDS011;54537;47.972;11.662;2023-02-01T14:13:57;4.03;;;1.83;;
66437;SDS011;54537;47.972;11.662;2023-02-01T14:23:09;4.70;;;2.13;;
66437;SDS011;54537;47.972;11.662;2023-02-01T14:25:38;3.30;;;1.70;;
66437;SDS011;54537;47.972;11.662;2023-02-01T14:28:09;4.40;;;1.90;;
66437;SDS011;54537;47.972;11.662;2023-02-01T14:30:37;5.40;;;2.03;;
66437;SDS011;54537;47.972;11.662;2023-02-01T14:33:11;4.60;;;1.80;;
66437;SDS011;54537;47.972;11.662;2023-02-01T14:35:38;4.35;;;1.60;;
66437;SDS011;54537;47.972;11.662;2023-02-01T14:38:08;3.95;;;1.85;;
66437;SDS011;54537;47.972;11.662;2023-02-01T14:40:36;6.78;;;2.38;;
66437;SDS011;54537;47.972;11.662;2023-02-01T14:43:02;3.17;;;1.75;;
66437;SDS011;54537;47.972;11.662;2023-02-01T14:45:48;4.63;;;1.88;;
66437;SDS011;54537;47.972;11.662;2023-02-01T14:51:08;4.05;;;1.92;;
66437;SDS011;54537;47.972;11.662;2023-02-01T14:53:39;4.60;;;1.65;;
66437;SDS011;54537;47.972;11.662;2023-02-01T14:56:08;6.28;;;1.60;;
66437;SDS011;54537;47.972;11.662;2023-02-01T14:58:40;3.63;;;1.73;;
66437;SDS011;54537;47.972;11.662;2023-02-01T15:01:15;4.53;;;1.65;;
66437;SDS011;54537;47.972;11.662;2023-02-01T15:03:45;5.03;;;1.23;;
66437;SDS011;54537;47.972;11.662;2023-02-01T15:06:25;5.32;;;1.42;;
66437;SDS011;54537;47.972;11.662;2023-02-01T15:08:55;7.70;;;2.10;;
66437;SDS011;54537;47.972;11.662;2023-02-01T15:11:24;7.35;;;2.20;;
66437;SDS011;54537;47.972;11.662;2023-02-01T15:13:51;9.43;;;2.70;;
66437;SDS011;54537;47.972;11.662;2023-02-01T15:16:19;8.32;;;2.72;;
66437;SDS011;54537;47.972;11.662;2023-02-01T15:18:47;10.63;;;2.60;;
66437;SDS011;54537;47.972;11.662;2023-02-01T15:21:15;12.27;;;3.17;;
66437;SDS011;54537;47.972;11.662;2023-02-01T15:23:43;9.27;;;2.95;;
66437;SDS011;54537;47.972;11.662;2023-02-01T15:26:25;8.07;;;2.38;;